sensor_id;sensor_type;location;lat;lon;timestamp;P1;durP1;ratioP1;P2;durP2;ratioP2
51915;SDS011;37942;53.218;6.548;2022-07-25T00:01:44;10.02;;;4.25;;
51915;SDS011;37942;53.218;6.548;2022-07-25T00:04:10;10.50;;;3.80;;
51915;SDS011;37942;53.218;6.548;2022-07-25T00:06:38;9.05;;;4.18;;
51915;SDS011;37942;53.218;6.548;2022-07-25T00:09:04;10.52;;;3.80;;
51915;SDS011;37942;53.218;6.548;2022-07-25T00:11:30;8.93;;;3.75;;
51915;SDS011;37942;53.218;6.548;2022-07-25T00:13:56;9.30;;;3.97;;
51915;SDS011;37942;53.218;6.548;2022-07-25T00:16:22;9.80;;;3.65;;
51915;SDS011;37942;53.218;6.548;2022-07-25T00:18:48;7.85;;;3.63;;
51915;SDS011;37942;53.218;6.548;2022-07-25T00:21:14;9.95;;;3.85;;
51915;SDS011;37942;53.218;6.548;2022-07-25T00:23:40;11.02;;;3.92;;
51915;SDS011;37942;53.218;6.548;2022-07-25T00:26:06;9.30;;;4.20;;
51915;SDS011;37942;53.218;6.548;2022-07-25T00:28:33;10.43;;;3.83;;
51915;SDS011;37942;53.218;6.548;2022-07-25T00:30:59;8.25;;;3.63;;
51915;SDS011;37942;53.218;6.548;2022-07-25T00:33:25;10.60;;;4.20;;
51915;SDS011;37942;53.218;6.548;2022-07-25T00:35:51;9.85;;;3.90;;
51915;SDS011;37942;53.218;6.548;2022-07-25T00:38:17;10.77;;;4.15;;
51915;SDS011;37942;53.218;6.548;2022-07-25T00:40:43;9.27;;;4.50;;
51915;SDS011;37942;53.218;6.548;2022-07-25T00:43:09;10.63;;;4.40;;
51915;SDS011;37942;53.218;6.548;2022-07-25T00:45:35;11.23;;;4.20;;
51915;SDS011;37942;53.218;6.548;2022-07-25T00:48:02;11.00;;;4.20;;
51915;SDS011;37942;53.218;6.548;2022-07-25T00:50:28;10.35;;;4.38;;
51915;SDS011;37942;53.218;6.548;2022-07-25T00:52:54;11.70;;;4.60;;
51915;SDS011;37942;53.218;6.548;2022-07-25T00:55:20;8.73;;;4.25;;
51915;SDS011;37942;53.218;6.548;2022-07-25T00:57:46;11.50;;;4.60;;
51915;SDS011;37942;53.218;6.548;2022-07-25T01:00:12;10.90;;;4.97;;
51915;SDS011;37942;53.218;6.548;2022-07-25T01:02:39;9.50;;;4.25;;
51915;SDS011;37942;53.218;6.548;2022-07-25T01:05:06;9.88;;;4.75;;
51915;SDS011;37942;53.218;6.548;2022-07-25T01:07:32;10.23;;;4.90;;
51915;SDS011;37942;53.218;6.548;2022-07-25T01:09:59;10.40;;;5.65;;
51915;SDS011;37942;53.218;6.548;2022-07-25T01:12:25;11.30;;;5.40;;
51915;SDS011;37942;53.218;6.548;2022-07-25T01:14:51;12.85;;;5.55;;
51915;SDS011;37942;53.218;6.548;2022-07-25T01:17:17;10.75;;;5.22;;
51915;SDS011;37942;53.218;6.548;2022-07-25T01:19:43;13.00;;;5.95;;
51915;SDS011;37942;53.218;6.548;2022-07-25T01:22:10;10.60;;;5.47;;
51915;SDS011;37942;53.218;6.548;2022-07-25T01:24:37;11.13;;;5.90;;
51915;SDS011;37942;53.218;6.548;2022-07-25T01:27:03;10.52;;;5.68;;
51915;SDS011;37942;53.218;6.548;2022-07-25T01:29:29;12.70;;;6.03;;
51915;SDS011;37942;53.218;6.548;2022-07-25T01:31:55;14.52;;;6.30;;
51915;SDS011;37942;53.218;6.548;2022-07-25T01:34:22;11.70;;;5.90;;
51915;SDS011;37942;53.218;6.548;2022-07-25T01:36:48;11.48;;;6.10;;
51915;SDS011;37942;53.218;6.548;2022-07-25T01:39:14;11.13;;;6.20;;
51915;SDS011;37942;53.218;6.548;2022-07-25T01:41:40;14.32;;;6.60;;
51915;SDS011;37942;53.218;6.548;2022-07-25T01:44:06;13.55;;;6.53;;
51915;SDS011;37942;53.218;6.548;2022-07-25T01:46:32;14.40;;;6.55;;
51915;SDS011;37942;53.218;6.548;2022-07-25T01:48:58;13.65;;;6.97;;
51915;SDS011;37942;53.218;6.548;2022-07-25T01:51:24;12.88;;;7.07;;
51915;SDS011;37942;53.218;6.548;2022-07-25T01:53:50;14.63;;;7.28;;
51915;SDS011;37942;53.218;6.548;2022-07-25T01:56:16;12.80;;;7.00;;
51915;SDS011;37942;53.218;6.548;2022-07-25T01:58:42;14.25;;;6.85;;
51915;SDS011;37942;53.218;6.548;2022-07-25T02:01:08;14.60;;;7.78;;
51915;SDS011;37942;53.218;6.548;2022-07-25T02:06:01;13.48;;;7.30;;
51915;SDS011;37942;53.218;6.548;2022-07-25T02:08:28;13.05;;;7.50;;
51915;SDS011;37942;53.218;6.548;2022-07-25T02:10:55;12.63;;;7.68;;
51915;SDS011;37942;53.218;6.548;2022-07-25T02:13:21;12.52;;;7.25;;
51915;SDS011;37942;53.218;6.548;2022-07-25T02:15:47;11.90;;;6.88;;
51915;SDS011;37942;53.218;6.548;2022-07-25T02:18:14;12.60;;;6.68;;
51915;SDS011;37942;53.218;6.548;2022-07-25T02:20:40;12.52;;;6.90;;
51915;SDS011;37942;53.218;6.548;2022-07-25T02:23:06;13.05;;;7.03;;
51915;SDS011;37942;53.218;6.548;2022-07-25T02:25:32;13.25;;;6.50;;
51915;SDS011;37942;53.218;6.548;2022-07-25T02:27:58;13.10;;;7.28;;
51915;SDS011;37942;53.218;6.548;2022-07-25T02:30:24;13.25;;;8.07;;
51915;SDS011;37942;53.218;6.548;2022-07-25T02:32:51;13.35;;;7.45;;
51915;SDS011;37942;53.218;6.548;2022-07-25T02:35:17;14.07;;;7.60;;
51915;SDS011;37942;53.218;6.548;2022-07-25T02:37:43;12.63;;;7.45;;
51915;SDS011;37942;53.218;6.548;2022-07-25T02:40:09;13.05;;;6.95;;
51915;SDS011;37942;53.218;6.548;2022-07-25T02:42:36;12.63;;;7.50;;
51915;SDS011;37942;53.218;6.548;2022-07-25T02:47:27;12.98;;;7.88;;
51915;SDS011;37942;53.218;6.548;2022-07-25T02:49:54;17.40;;;7.70;;
51915;SDS011;37942;53.218;6.548;2022-07-25T02:54:46;14.05;;;7.68;;
51915;SDS011;37942;53.218;6.548;2022-07-25T02:59:37;14.48;;;7.32;;
51915;SDS011;37942;53.218;6.548;2022-07-25T03:04:29;12.60;;;7.05;;
51915;SDS011;37942;53.218;6.548;2022-07-25T03:06:56;13.10;;;7.22;;
51915;SDS011;37942;53.218;6.548;2022-07-25T03:09:22;13.93;;;7.63;;
51915;SDS011;37942;53.218;6.548;2022-07-25T03:11:48;21.85;;;8.30;;
51915;SDS011;37942;53.218;6.548;2022-07-25T03:14:16;21.15;;;7.28;;
51915;SDS011;37942;53.218;6.548;2022-07-25T03:16:42;13.52;;;7.43;;
51915;SDS011;37942;53.218;6.548;2022-07-25T03:21:35;14.00;;;7.28;;
51915;SDS011;37942;53.218;6.548;2022-07-25T03:24:01;15.27;;;7.63;;
51915;SDS011;37942;53.218;6.548;2022-07-25T03:26:27;14.68;;;7.30;;
51915;SDS011;37942;53.218;6.548;2022-07-25T03:28:54;14.95;;;7.45;;
51915;SDS011;37942;53.218;6.548;2022-07-25T03:33:46;13.45;;;7.50;;
51915;SDS011;37942;53.218;6.548;2022-07-25T03:38:37;15.63;;;7.78;;
51915;SDS011;37942;53.218;6.548;2022-07-25T03:43:30;15.82;;;8.20;;
51915;SDS011;37942;53.218;6.548;2022-07-25T03:45:56;13.05;;;7.70;;
51915;SDS011;37942;53.218;6.548;2022-07-25T03:50:48;14.93;;;8.77;;
51915;SDS011;37942;53.218;6.548;2022-07-25T03:55:40;13.77;;;8.52;;
51915;SDS011;37942;53.218;6.548;2022-07-25T04:00:32;14.15;;;9.25;;
51915;SDS011;37942;53.218;6.548;2022-07-25T04:05:24;19.92;;;10.05;;
51915;SDS011;37942;53.218;6.548;2022-07-25T04:10:16;16.02;;;9.98;;
51915;SDS011;37942;53.218;6.548;2022-07-25T04:15:08;15.48;;;9.35;;
51915;SDS011;37942;53.218;6.548;2022-07-25T04:17:34;16.52;;;9.77;;
51915;SDS011;37942;53.218;6.548;2022-07-25T04:22:26;17.55;;;11.70;;
51915;SDS011;37942;53.218;6.548;2022-07-25T04:27:18;19.40;;;10.48;;
51915;SDS011;37942;53.218;6.548;2022-07-25T04:32:10;17.27;;;10.85;;
51915;SDS011;37942;53.218;6.548;2022-07-25T04:34:37;18.13;;;11.45;;
51915;SDS011;37942;53.218;6.548;2022-07-25T04:37:03;16.10;;;10.43;;
51915;SDS011;37942;53.218;6.548;2022-07-25T04:41:55;18.98;;;11.40;;
51915;SDS011;37942;53.218;6.548;2022-07-25T04:44:21;17.10;;;10.88;;
51915;SDS011;37942;53.218;6.548;2022-07-25T04:46:48;19.00;;;11.05;;
51915;SDS011;37942;53.218;6.548;2022-07-25T04:49:14;17.10;;;10.93;;
51915;SDS011;37942;53.218;6.548;2022-07-25T04:54:06;19.08;;;11.50;;
51915;SDS011;37942;53.218;6.548;2022-07-25T04:56:33;19.50;;;12.05;;
51915;SDS011;37942;53.218;6.548;2022-07-25T04:58:59;17.58;;;11.68;;
51915;SDS011;37942;53.218;6.548;2022-07-25T05:03:51;19.05;;;12.43;;
51915;SDS011;37942;53.218;6.548;2022-07-25T05:08:43;19.27;;;11.88;;
51915;SDS011;37942;53.218;6.548;2022-07-25T05:13:35;18.38;;;12.00;;
51915;SDS011;37942;53.218;6.548;2022-07-25T05:16:01;19.55;;;11.77;;
51915;SDS011;37942;53.218;6.548;2022-07-25T05:20:53;21.40;;;13.25;;
51915;SDS011;37942;53.218;6.548;2022-07-25T05:25:46;22.02;;;13.15;;
51915;SDS011;37942;53.218;6.548;2022-07-25T05:28:12;19.23;;;12.43;;
51915;SDS011;37942;53.218;6.548;2022-07-25T05:30:39;19.70;;;12.85;;
51915;SDS011;37942;53.218;6.548;2022-07-25T05:33:05;20.67;;;13.60;;
51915;SDS011;37942;53.218;6.548;2022-07-25T05:35:31;21.00;;;13.35;;
51915;SDS011;37942;53.218;6.548;2022-07-25T05:40:23;22.27;;;14.45;;
51915;SDS011;37942;53.218;6.548;2022-07-25T05:42:49;19.45;;;13.30;;
51915;SDS011;37942;53.218;6.548;2022-07-25T05:47:41;21.20;;;14.65;;
51915;SDS011;37942;53.218;6.548;2022-07-25T05:50:07;22.17;;;14.55;;
51915;SDS011;37942;53.218;6.548;2022-07-25T05:52:34;24.20;;;14.60;;
51915;SDS011;37942;53.218;6.548;2022-07-25T05:55:00;20.73;;;14.48;;
51915;SDS011;37942;53.218;6.548;2022-07-25T05:59:52;23.80;;;14.82;;
51915;SDS011;37942;53.218;6.548;2022-07-25T06:02:18;22.27;;;14.88;;
51915;SDS011;37942;53.218;6.548;2022-07-25T06:07:10;22.15;;;15.52;;
51915;SDS011;37942;53.218;6.548;2022-07-25T06:09:36;20.60;;;14.30;;
51915;SDS011;37942;53.218;6.548;2022-07-25T06:14:28;23.00;;;15.53;;
51915;SDS011;37942;53.218;6.548;2022-07-25T06:19:20;20.80;;;14.25;;
51915;SDS011;37942;53.218;6.548;2022-07-25T06:21:47;21.52;;;15.02;;
51915;SDS011;37942;53.218;6.548;2022-07-25T06:24:13;23.52;;;14.88;;
51915;SDS011;37942;53.218;6.548;2022-07-25T06:29:05;21.35;;;15.25;;
51915;SDS011;37942;53.218;6.548;2022-07-25T06:33:57;20.83;;;14.95;;
51915;SDS011;37942;53.218;6.548;2022-07-25T06:38:49;21.10;;;14.68;;
51915;SDS011;37942;53.218;6.548;2022-07-25T06:41:16;20.80;;;14.68;;
51915;SDS011;37942;53.218;6.548;2022-07-25T06:43:42;20.15;;;14.60;;
51915;SDS011;37942;53.218;6.548;2022-07-25T06:46:08;28.65;;;15.50;;
51915;SDS011;37942;53.218;6.548;2022-07-25T06:51:00;20.50;;;15.18;;
51915;SDS011;37942;53.218;6.548;2022-07-25T06:53:26;24.90;;;14.07;;
51915;SDS011;37942;53.218;6.548;2022-07-25T06:55:52;23.10;;;14.52;;
51915;SDS011;37942;53.218;6.548;2022-07-25T07:00:44;22.07;;;13.97;;
51915;SDS011;37942;53.218;6.548;2022-07-25T07:03:11;23.23;;;13.18;;
51915;SDS011;37942;53.218;6.548;2022-07-25T07:05:38;23.45;;;14.05;;
51915;SDS011;37942;53.218;6.548;2022-07-25T07:08:05;20.17;;;13.65;;
51915;SDS011;37942;53.218;6.548;2022-07-25T07:10:31;22.60;;;13.98;;
51915;SDS011;37942;53.218;6.548;2022-07-25T07:13:01;23.83;;;13.48;;
51915;SDS011;37942;53.218;6.548;2022-07-25T07:15:28;22.25;;;13.40;;
51915;SDS011;37942;53.218;6.548;2022-07-25T07:17:54;21.40;;;13.82;;
51915;SDS011;37942;53.218;6.548;2022-07-25T07:20:20;19.92;;;13.98;;
51915;SDS011;37942;53.218;6.548;2022-07-25T07:22:46;25.63;;;14.38;;
51915;SDS011;37942;53.218;6.548;2022-07-25T07:25:13;21.98;;;14.10;;
51915;SDS011;37942;53.218;6.548;2022-07-25T07:27:40;21.83;;;14.25;;
51915;SDS011;37942;53.218;6.548;2022-07-25T07:30:06;22.67;;;14.95;;
51915;SDS011;37942;53.218;6.548;2022-07-25T07:32:32;21.73;;;14.27;;
51915;SDS011;37942;53.218;6.548;2022-07-25T07:34:58;22.23;;;14.15;;
51915;SDS011;37942;53.218;6.548;2022-07-25T07:37:24;23.48;;;14.55;;
51915;SDS011;37942;53.218;6.548;2022-07-25T07:42:16;20.00;;;14.40;;
51915;SDS011;37942;53.218;6.548;2022-07-25T07:44:42;21.73;;;12.77;;
51915;SDS011;37942;53.218;6.548;2022-07-25T07:47:08;20.85;;;12.82;;
51915;SDS011;37942;53.218;6.548;2022-07-25T07:49:34;21.02;;;13.45;;
51915;SDS011;37942;53.218;6.548;2022-07-25T07:52:01;21.33;;;13.40;;
51915;SDS011;37942;53.218;6.548;2022-07-25T07:57:11;19.23;;;12.00;;
51915;SDS011;37942;53.218;6.548;2022-07-25T08:02:03;20.05;;;10.80;;
51915;SDS011;37942;53.218;6.548;2022-07-25T08:04:30;19.92;;;10.93;;
51915;SDS011;37942;53.218;6.548;2022-07-25T08:09:22;18.25;;;10.50;;
51915;SDS011;37942;53.218;6.548;2022-07-25T08:11:50;18.08;;;11.93;;
51915;SDS011;37942;53.218;6.548;2022-07-25T08:14:16;17.20;;;10.52;;
51915;SDS011;37942;53.218;6.548;2022-07-25T08:16:42;17.58;;;10.15;;
51915;SDS011;37942;53.218;6.548;2022-07-25T08:19:08;15.90;;;9.98;;
51915;SDS011;37942;53.218;6.548;2022-07-25T08:21:35;17.65;;;10.13;;
51915;SDS011;37942;53.218;6.548;2022-07-25T08:24:01;17.63;;;10.18;;
51915;SDS011;37942;53.218;6.548;2022-07-25T08:26:27;18.48;;;10.30;;
51915;SDS011;37942;53.218;6.548;2022-07-25T08:28:55;16.67;;;9.88;;
51915;SDS011;37942;53.218;6.548;2022-07-25T08:31:21;21.38;;;9.98;;
51915;SDS011;37942;53.218;6.548;2022-07-25T08:33:48;18.65;;;10.45;;
51915;SDS011;37942;53.218;6.548;2022-07-25T08:36:14;16.00;;;9.02;;
51915;SDS011;37942;53.218;6.548;2022-07-25T08:38:40;17.00;;;9.20;;
51915;SDS011;37942;53.218;6.548;2022-07-25T08:41:06;15.77;;;9.45;;
51915;SDS011;37942;53.218;6.548;2022-07-25T08:43:33;15.80;;;8.90;;
51915;SDS011;37942;53.218;6.548;2022-07-25T08:46:01;18.08;;;9.10;;
51915;SDS011;37942;53.218;6.548;2022-07-25T08:48:29;18.73;;;9.40;;
51915;SDS011;37942;53.218;6.548;2022-07-25T08:50:55;17.52;;;10.05;;
51915;SDS011;37942;53.218;6.548;2022-07-25T08:53:22;18.02;;;9.30;;
51915;SDS011;37942;53.218;6.548;2022-07-25T08:55:49;17.48;;;9.18;;
51915;SDS011;37942;53.218;6.548;2022-07-25T08:58:15;16.98;;;8.73;;
51915;SDS011;37942;53.218;6.548;2022-07-25T09:00:42;17.38;;;7.43;;
51915;SDS011;37942;53.218;6.548;2022-07-25T09:03:08;15.00;;;6.60;;
51915;SDS011;37942;53.218;6.548;2022-07-25T09:05:35;16.45;;;6.25;;
51915;SDS011;37942;53.218;6.548;2022-07-25T09:08:05;14.98;;;6.13;;
51915;SDS011;37942;53.218;6.548;2022-07-25T09:10:31;12.02;;;5.75;;
51915;SDS011;37942;53.218;6.548;2022-07-25T09:17:50;10.43;;;4.20;;
51915;SDS011;37942;53.218;6.548;2022-07-25T09:20:16;11.85;;;4.53;;
51915;SDS011;37942;53.218;6.548;2022-07-25T09:22:43;12.48;;;4.15;;
51915;SDS011;37942;53.218;6.548;2022-07-25T09:25:26;15.82;;;4.97;;
51915;SDS011;37942;53.218;6.548;2022-07-25T09:27:54;11.95;;;4.35;;
51915;SDS011;37942;53.218;6.548;2022-07-25T09:30:20;13.30;;;4.32;;
51915;SDS011;37942;53.218;6.548;2022-07-25T09:32:57;11.32;;;4.15;;
51915;SDS011;37942;53.218;6.548;2022-07-25T09:35:31;14.57;;;4.10;;
51915;SDS011;37942;53.218;6.548;2022-07-25T09:40:33;10.25;;;3.58;;
51915;SDS011;37942;53.218;6.548;2022-07-25T09:42:59;10.07;;;3.67;;
51915;SDS011;37942;53.218;6.548;2022-07-25T09:45:25;8.07;;;3.28;;
51915;SDS011;37942;53.218;6.548;2022-07-25T09:47:52;10.40;;;3.58;;
51915;SDS011;37942;53.218;6.548;2022-07-25T09:50:19;8.98;;;3.55;;
51915;SDS011;37942;53.218;6.548;2022-07-25T09:52:45;9.95;;;3.38;;
51915;SDS011;37942;53.218;6.548;2022-07-25T09:55:12;8.93;;;3.50;;
51915;SDS011;37942;53.218;6.548;2022-07-25T09:57:39;7.97;;;3.20;;
51915;SDS011;37942;53.218;6.548;2022-07-25T10:00:06;11.77;;;3.30;;
51915;SDS011;37942;53.218;6.548;2022-07-25T10:02:45;8.10;;;3.03;;
51915;SDS011;37942;53.218;6.548;2022-07-25T10:05:18;10.98;;;3.05;;
51915;SDS011;37942;53.218;6.548;2022-07-25T10:07:46;9.07;;;2.70;;
51915;SDS011;37942;53.218;6.548;2022-07-25T10:10:26;8.30;;;2.80;;
51915;SDS011;37942;53.218;6.548;2022-07-25T10:15:25;9.27;;;3.22;;
51915;SDS011;37942;53.218;6.548;2022-07-25T10:18:01;9.15;;;3.03;;
51915;SDS011;37942;53.218;6.548;2022-07-25T10:20:28;8.65;;;3.25;;
51915;SDS011;37942;53.218;6.548;2022-07-25T10:22:54;9.27;;;3.55;;
51915;SDS011;37942;53.218;6.548;2022-07-25T10:25:20;10.90;;;3.90;;
51915;SDS011;37942;53.218;6.548;2022-07-25T10:27:47;8.98;;;3.67;;
51915;SDS011;37942;53.218;6.548;2022-07-25T10:30:20;8.75;;;3.38;;
51915;SDS011;37942;53.218;6.548;2022-07-25T10:32:48;10.40;;;3.72;;
51915;SDS011;37942;53.218;6.548;2022-07-25T10:35:17;11.93;;;4.05;;
51915;SDS011;37942;53.218;6.548;2022-07-25T10:37:44;10.02;;;3.85;;
51915;SDS011;37942;53.218;6.548;2022-07-25T10:40:22;10.43;;;3.80;;
51915;SDS011;37942;53.218;6.548;2022-07-25T10:42:49;12.02;;;4.40;;
51915;SDS011;37942;53.218;6.548;2022-07-25T10:45:16;12.02;;;4.03;;
51915;SDS011;37942;53.218;6.548;2022-07-25T10:47:46;12.60;;;4.50;;
51915;SDS011;37942;53.218;6.548;2022-07-25T10:50:15;14.30;;;5.50;;
51915;SDS011;37942;53.218;6.548;2022-07-25T10:52:43;11.73;;;4.78;;
51915;SDS011;37942;53.218;6.548;2022-07-25T10:55:20;14.00;;;4.68;;
51915;SDS011;37942;53.218;6.548;2022-07-25T10:57:57;12.43;;;4.20;;
51915;SDS011;37942;53.218;6.548;2022-07-25T11:00:23;16.10;;;4.72;;
51915;SDS011;37942;53.218;6.548;2022-07-25T11:02:50;11.55;;;4.20;;
51915;SDS011;37942;53.218;6.548;2022-07-25T11:05:20;12.23;;;3.40;;
51915;SDS011;37942;53.218;6.548;2022-07-25T11:07:49;11.65;;;4.30;;
51915;SDS011;37942;53.218;6.548;2022-07-25T11:10:25;12.02;;;3.90;;
51915;SDS011;37942;53.218;6.548;2022-07-25T11:12:52;11.63;;;3.95;;
51915;SDS011;37942;53.218;6.548;2022-07-25T11:15:20;17.30;;;4.30;;
51915;SDS011;37942;53.218;6.548;2022-07-25T11:17:50;12.65;;;3.60;;
51915;SDS011;37942;53.218;6.548;2022-07-25T11:20:17;10.85;;;3.83;;
51915;SDS011;37942;53.218;6.548;2022-07-25T11:22:49;13.38;;;3.80;;
51915;SDS011;37942;53.218;6.548;2022-07-25T11:25:18;12.13;;;3.80;;
51915;SDS011;37942;53.218;6.548;2022-07-25T11:27:48;12.52;;;3.90;;
51915;SDS011;37942;53.218;6.548;2022-07-25T11:30:15;11.70;;;4.15;;
51915;SDS011;37942;53.218;6.548;2022-07-25T11:35:11;11.13;;;3.70;;
51915;SDS011;37942;53.218;6.548;2022-07-25T11:37:38;12.23;;;3.55;;
51915;SDS011;37942;53.218;6.548;2022-07-25T11:40:05;14.98;;;4.32;;
51915;SDS011;37942;53.218;6.548;2022-07-25T11:42:44;11.32;;;3.78;;
51915;SDS011;37942;53.218;6.548;2022-07-25T11:45:15;13.02;;;3.95;;
51915;SDS011;37942;53.218;6.548;2022-07-25T11:47:42;13.23;;;4.03;;
51915;SDS011;37942;53.218;6.548;2022-07-25T11:50:08;13.82;;;4.38;;
51915;SDS011;37942;53.218;6.548;2022-07-25T11:52:38;14.85;;;4.47;;
51915;SDS011;37942;53.218;6.548;2022-07-25T11:55:16;18.35;;;4.00;;
51915;SDS011;37942;53.218;6.548;2022-07-25T11:57:44;16.05;;;4.90;;
51915;SDS011;37942;53.218;6.548;2022-07-25T12:00:18;14.93;;;4.05;;
51915;SDS011;37942;53.218;6.548;2022-07-25T12:02:44;12.65;;;3.90;;
51915;SDS011;37942;53.218;6.548;2022-07-25T12:05:12;13.00;;;3.92;;
51915;SDS011;37942;53.218;6.548;2022-07-25T12:07:46;17.73;;;4.13;;
51915;SDS011;37942;53.218;6.548;2022-07-25T12:10:20;12.48;;;3.65;;
51915;SDS011;37942;53.218;6.548;2022-07-25T12:12:50;12.90;;;3.70;;
51915;SDS011;37942;53.218;6.548;2022-07-25T12:15:21;13.07;;;3.60;;
51915;SDS011;37942;53.218;6.548;2022-07-25T12:17:49;12.70;;;3.85;;
51915;SDS011;37942;53.218;6.548;2022-07-25T12:20:16;13.50;;;3.70;;
51915;SDS011;37942;53.218;6.548;2022-07-25T12:22:42;11.18;;;3.70;;
51915;SDS011;37942;53.218;6.548;2022-07-25T12:25:08;13.02;;;3.90;;
51915;SDS011;37942;53.218;6.548;2022-07-25T12:27:34;13.57;;;3.30;;
51915;SDS011;37942;53.218;6.548;2022-07-25T12:30:01;11.32;;;3.50;;
51915;SDS011;37942;53.218;6.548;2022-07-25T12:32:27;13.38;;;3.70;;
51915;SDS011;37942;53.218;6.548;2022-07-25T12:34:53;13.18;;;2.90;;
51915;SDS011;37942;53.218;6.548;2022-07-25T12:37:19;14.90;;;3.33;;
51915;SDS011;37942;53.218;6.548;2022-07-25T12:39:45;9.57;;;3.05;;
51915;SDS011;37942;53.218;6.548;2022-07-25T12:42:12;12.73;;;3.05;;
51915;SDS011;37942;53.218;6.548;2022-07-25T12:44:38;12.07;;;3.70;;
51915;SDS011;37942;53.218;6.548;2022-07-25T12:47:04;14.38;;;3.40;;
51915;SDS011;37942;53.218;6.548;2022-07-25T12:49:30;11.45;;;2.92;;
51915;SDS011;37942;53.218;6.548;2022-07-25T12:51:56;11.90;;;3.53;;
51915;SDS011;37942;53.218;6.548;2022-07-25T12:54:22;11.18;;;3.22;;
51915;SDS011;37942;53.218;6.548;2022-07-25T12:56:48;11.88;;;3.00;;
51915;SDS011;37942;53.218;6.548;2022-07-25T12:59:15;16.42;;;3.60;;
51915;SDS011;37942;53.218;6.548;2022-07-25T13:01:41;10.13;;;3.10;;
51915;SDS011;37942;53.218;6.548;2022-07-25T13:04:07;12.02;;;3.42;;
51915;SDS011;37942;53.218;6.548;2022-07-25T13:06:36;10.40;;;3.20;;
51915;SDS011;37942;53.218;6.548;2022-07-25T13:09:02;11.65;;;3.10;;
51915;SDS011;37942;53.218;6.548;2022-07-25T13:11:28;11.57;;;3.28;;
51915;SDS011;37942;53.218;6.548;2022-07-25T13:13:55;11.32;;;3.30;;
51915;SDS011;37942;53.218;6.548;2022-07-25T13:16:21;11.13;;;3.25;;
51915;SDS011;37942;53.218;6.548;2022-07-25T13:18:47;14.25;;;3.20;;
51915;SDS011;37942;53.218;6.548;2022-07-25T13:21:13;13.15;;;3.08;;
51915;SDS011;37942;53.218;6.548;2022-07-25T13:23:39;13.25;;;3.13;;
51915;SDS011;37942;53.218;6.548;2022-07-25T13:26:06;10.68;;;2.92;;
51915;SDS011;37942;53.218;6.548;2022-07-25T13:28:32;13.10;;;3.58;;
51915;SDS011;37942;53.218;6.548;2022-07-25T13:30:58;14.57;;;3.55;;
51915;SDS011;37942;53.218;6.548;2022-07-25T13:33:26;13.48;;;3.72;;
51915;SDS011;37942;53.218;6.548;2022-07-25T13:35:52;13.00;;;3.60;;
51915;SDS011;37942;53.218;6.548;2022-07-25T13:38:18;13.77;;;3.63;;
51915;SDS011;37942;53.218;6.548;2022-07-25T13:40:44;16.27;;;3.60;;
51915;SDS011;37942;53.218;6.548;2022-07-25T13:45:36;14.02;;;3.17;;
51915;SDS011;37942;53.218;6.548;2022-07-25T13:48:02;13.80;;;3.67;;
51915;SDS011;37942;53.218;6.548;2022-07-25T13:50:29;18.35;;;3.88;;
51915;SDS011;37942;53.218;6.548;2022-07-25T13:52:55;12.57;;;3.90;;
51915;SDS011;37942;53.218;6.548;2022-07-25T13:55:22;12.88;;;3.65;;
51915;SDS011;37942;53.218;6.548;2022-07-25T13:57:48;13.32;;;4.40;;
51915;SDS011;37942;53.218;6.548;2022-07-25T14:00:14;14.25;;;4.20;;
51915;SDS011;37942;53.218;6.548;2022-07-25T14:02:40;12.70;;;3.45;;
51915;SDS011;37942;53.218;6.548;2022-07-25T14:07:35;18.33;;;4.13;;
51915;SDS011;37942;53.218;6.548;2022-07-25T14:10:02;15.57;;;4.03;;
51915;SDS011;37942;53.218;6.548;2022-07-25T14:12:29;16.77;;;4.82;;
51915;SDS011;37942;53.218;6.548;2022-07-25T14:14:55;13.98;;;3.95;;
51915;SDS011;37942;53.218;6.548;2022-07-25T14:17:21;13.75;;;3.90;;
51915;SDS011;37942;53.218;6.548;2022-07-25T14:19:47;14.25;;;3.53;;
51915;SDS011;37942;53.218;6.548;2022-07-25T14:24:39;14.18;;;3.45;;
51915;SDS011;37942;53.218;6.548;2022-07-25T14:29:31;15.02;;;3.60;;
51915;SDS011;37942;53.218;6.548;2022-07-25T14:31:57;13.35;;;3.22;;
51915;SDS011;37942;53.218;6.548;2022-07-25T14:34:23;13.55;;;3.95;;
51915;SDS011;37942;53.218;6.548;2022-07-25T14:36:49;10.52;;;3.58;;
51915;SDS011;37942;53.218;6.548;2022-07-25T14:41:42;12.30;;;3.53;;
51915;SDS011;37942;53.218;6.548;2022-07-25T14:46:34;12.48;;;3.58;;
51915;SDS011;37942;53.218;6.548;2022-07-25T14:49:00;15.38;;;3.65;;
51915;SDS011;37942;53.218;6.548;2022-07-25T14:51:26;15.10;;;3.83;;
51915;SDS011;37942;53.218;6.548;2022-07-25T14:53:53;14.60;;;3.60;;
51915;SDS011;37942;53.218;6.548;2022-07-25T14:56:19;14.23;;;3.40;;
51915;SDS011;37942;53.218;6.548;2022-07-25T14:58:45;13.50;;;3.75;;
51915;SDS011;37942;53.218;6.548;2022-07-25T15:01:11;13.07;;;3.38;;
51915;SDS011;37942;53.218;6.548;2022-07-25T15:03:40;12.88;;;3.88;;
51915;SDS011;37942;53.218;6.548;2022-07-25T15:06:06;15.52;;;3.58;;
51915;SDS011;37942;53.218;6.548;2022-07-25T15:08:35;11.02;;;3.38;;
51915;SDS011;37942;53.218;6.548;2022-07-25T15:11:01;13.77;;;3.65;;
51915;SDS011;37942;53.218;6.548;2022-07-25T15:13:27;14.02;;;4.00;;
51915;SDS011;37942;53.218;6.548;2022-07-25T15:18:20;14.05;;;4.38;;
51915;SDS011;37942;53.218;6.548;2022-07-25T15:20:46;16.13;;;4.05;;
51915;SDS011;37942;53.218;6.548;2022-07-25T15:23:13;12.75;;;3.72;;
51915;SDS011;37942;53.218;6.548;2022-07-25T15:25:39;17.98;;;3.63;;
51915;SDS011;37942;53.218;6.548;2022-07-25T15:28:05;14.93;;;3.75;;
51915;SDS011;37942;53.218;6.548;2022-07-25T15:30:31;12.93;;;3.60;;
51915;SDS011;37942;53.218;6.548;2022-07-25T15:32:57;16.85;;;3.65;;
51915;SDS011;37942;53.218;6.548;2022-07-25T15:35:23;15.25;;;4.00;;
51915;SDS011;37942;53.218;6.548;2022-07-25T15:37:49;15.93;;;3.88;;
51915;SDS011;37942;53.218;6.548;2022-07-25T15:40:15;13.40;;;4.13;;
51915;SDS011;37942;53.218;6.548;2022-07-25T15:42:42;14.63;;;3.78;;
51915;SDS011;37942;53.218;6.548;2022-07-25T15:45:08;13.45;;;3.60;;
51915;SDS011;37942;53.218;6.548;2022-07-25T15:47:34;14.40;;;3.80;;
51915;SDS011;37942;53.218;6.548;2022-07-25T15:50:01;16.15;;;3.72;;
51915;SDS011;37942;53.218;6.548;2022-07-25T15:52:27;13.73;;;4.03;;
51915;SDS011;37942;53.218;6.548;2022-07-25T15:54:53;14.02;;;4.22;;
51915;SDS011;37942;53.218;6.548;2022-07-25T15:59:45;13.93;;;3.38;;
51915;SDS011;37942;53.218;6.548;2022-07-25T16:02:11;15.40;;;3.90;;
51915;SDS011;37942;53.218;6.548;2022-07-25T16:04:40;16.13;;;4.10;;
51915;SDS011;37942;53.218;6.548;2022-07-25T16:07:06;12.52;;;3.67;;
51915;SDS011;37942;53.218;6.548;2022-07-25T16:09:32;15.68;;;3.72;;
51915;SDS011;37942;53.218;6.548;2022-07-25T16:11:59;14.43;;;3.70;;
51915;SDS011;37942;53.218;6.548;2022-07-25T16:14:25;14.45;;;3.78;;
51915;SDS011;37942;53.218;6.548;2022-07-25T16:16:51;13.85;;;3.50;;
51915;SDS011;37942;53.218;6.548;2022-07-25T16:19:17;13.55;;;3.38;;
51915;SDS011;37942;53.218;6.548;2022-07-25T16:21:43;11.90;;;3.03;;
51915;SDS011;37942;53.218;6.548;2022-07-25T16:24:09;16.17;;;3.80;;
51915;SDS011;37942;53.218;6.548;2022-07-25T16:26:35;11.73;;;3.17;;
51915;SDS011;37942;53.218;6.548;2022-07-25T16:29:02;18.70;;;3.83;;
51915;SDS011;37942;53.218;6.548;2022-07-25T16:31:28;14.90;;;3.70;;
51915;SDS011;37942;53.218;6.548;2022-07-25T16:33:55;15.73;;;3.92;;
51915;SDS011;37942;53.218;6.548;2022-07-25T16:36:21;15.13;;;3.45;;
51915;SDS011;37942;53.218;6.548;2022-07-25T16:38:49;14.25;;;3.50;;
51915;SDS011;37942;53.218;6.548;2022-07-25T16:41:17;10.75;;;3.20;;